sensor_id;sensor_type;location;lat;lon;timestamp;P1;durP1;ratioP1;P2;durP2;ratioP2
20363;SDS011;10340;53.664;9.908;2023-02-28T00:00:35;0.30;;;0.30;;
20363;SDS011;10340;53.664;9.908;2023-02-28T00:03:03;0.30;;;0.30;;
20363;SDS011;10340;53.664;9.908;2023-02-28T00:05:30;0.30;;;0.30;;
20363;SDS011;10340;53.664;9.908;2023-02-28T00:07:57;0.40;;;0.40;;
20363;SDS011;10340;53.664;9.908;2023-02-28T00:10:25;0.30;;;0.30;;
20363;SDS011;10340;53.664;9.908;2023-02-28T00:12:54;0.30;;;0.30;;
20363;SDS011;10340;53.664;9.908;2023-02-28T00:15:24;0.40;;;0.40;;
20363;SDS011;10340;53.664;9.908;2023-02-28T00:17:51;0.40;;;0.40;;
20363;SDS011;10340;53.664;9.908;2023-02-28T00:20:18;0.40;;;0.40;;
20363;SDS011;10340;53.664;9.908;2023-02-28T00:22:46;0.40;;;0.40;;
20363;SDS011;10340;53.664;9.908;2023-02-28T00:25:15;0.30;;;0.30;;
20363;SDS011;10340;53.664;9.908;2023-02-28T00:27:43;0.40;;;0.40;;
20363;SDS011;10340;53.664;9.908;2023-02-28T00:30:11;0.40;;;0.40;;
20363;SDS011;10340;53.664;9.908;2023-02-28T00:32:41;0.40;;;0.40;;
20363;SDS011;10340;53.664;9.908;2023-02-28T00:35:08;0.37;;;0.37;;
20363;SDS011;10340;53.664;9.908;2023-02-28T00:37:36;0.30;;;0.30;;
20363;SDS011;10340;53.664;9.908;2023-02-28T00:40:05;0.40;;;0.40;;
20363;SDS011;10340;53.664;9.908;2023-02-28T00:42:34;0.30;;;0.30;;
20363;SDS011;10340;53.664;9.908;2023-02-28T00:45:01;0.30;;;0.30;;
20363;SDS011;10340;53.664;9.908;2023-02-28T00:47:30;0.40;;;0.40;;
20363;SDS011;10340;53.664;9.908;2023-02-28T00:49:58;0.50;;;0.50;;
20363;SDS011;10340;53.664;9.908;2023-02-28T00:52:25;0.30;;;0.30;;
20363;SDS011;10340;53.664;9.908;2023-02-28T00:54:54;0.40;;;0.40;;
20363;SDS011;10340;53.664;9.908;2023-02-28T00:57:22;0.40;;;0.40;;
20363;SDS011;10340;53.664;9.908;2023-02-28T00:59:49;0.30;;;0.30;;
20363;SDS011;10340;53.664;9.908;2023-02-28T01:02:18;0.30;;;0.30;;
20363;SDS011;10340;53.664;9.908;2023-02-28T01:04:47;0.40;;;0.40;;
20363;SDS011;10340;53.664;9.908;2023-02-28T01:07:16;0.30;;;0.30;;
20363;SDS011;10340;53.664;9.908;2023-02-28T01:09:43;0.40;;;0.40;;
20363;SDS011;10340;53.664;9.908;2023-02-28T01:12:10;0.40;;;0.40;;
20363;SDS011;10340;53.664;9.908;2023-02-28T01:14:37;0.33;;;0.33;;
20363;SDS011;10340;53.664;9.908;2023-02-28T01:17:04;0.30;;;0.30;;
20363;SDS011;10340;53.664;9.908;2023-02-28T01:19:31;0.40;;;0.40;;
20363;SDS011;10340;53.664;9.908;2023-02-28T01:22:00;0.40;;;0.40;;
20363;SDS011;10340;53.664;9.908;2023-02-28T01:24:29;0.40;;;0.40;;
20363;SDS011;10340;53.664;9.908;2023-02-28T01:26:56;0.40;;;0.40;;
20363;SDS011;10340;53.664;9.908;2023-02-28T01:29:23;0.40;;;0.40;;
20363;SDS011;10340;53.664;9.908;2023-02-28T01:31:50;0.40;;;0.40;;
20363;SDS011;10340;53.664;9.908;2023-02-28T01:34:17;0.40;;;0.40;;
20363;SDS011;10340;53.664;9.908;2023-02-28T01:36:45;0.40;;;0.40;;
20363;SDS011;10340;53.664;9.908;2023-02-28T01:39:12;0.30;;;0.30;;
20363;SDS011;10340;53.664;9.908;2023-02-28T01:41:40;0.50;;;0.50;;
20363;SDS011;10340;53.664;9.908;2023-02-28T01:47:08;0.40;;;0.40;;
20363;SDS011;10340;53.664;9.908;2023-02-28T01:49:35;0.30;;;0.30;;
20363;SDS011;10340;53.664;9.908;2023-02-28T01:52:02;0.30;;;0.30;;
20363;SDS011;10340;53.664;9.908;2023-02-28T01:54:30;0.47;;;0.47;;
20363;SDS011;10340;53.664;9.908;2023-02-28T01:57:01;0.30;;;0.30;;
20363;SDS011;10340;53.664;9.908;2023-02-28T01:59:33;0.40;;;0.40;;
20363;SDS011;10340;53.664;9.908;2023-02-28T02:02:02;0.50;;;0.50;;
20363;SDS011;10340;53.664;9.908;2023-02-28T02:04:32;0.40;;;0.40;;
20363;SDS011;10340;53.664;9.908;2023-02-28T02:07:03;0.30;;;0.30;;
20363;SDS011;10340;53.664;9.908;2023-02-28T02:09:30;0.40;;;0.40;;
20363;SDS011;10340;53.664;9.908;2023-02-28T02:11:57;0.40;;;0.40;;
20363;SDS011;10340;53.664;9.908;2023-02-28T02:14:30;0.40;;;0.40;;
20363;SDS011;10340;53.664;9.908;2023-02-28T02:17:10;0.40;;;0.40;;
20363;SDS011;10340;53.664;9.908;2023-02-28T02:23:01;0.43;;;0.43;;
20363;SDS011;10340;53.664;9.908;2023-02-28T02:25:49;0.30;;;0.30;;
20363;SDS011;10340;53.664;9.908;2023-02-28T02:28:35;0.30;;;0.30;;
20363;SDS011;10340;53.664;9.908;2023-02-28T02:31:31;0.40;;;0.40;;
20363;SDS011;10340;53.664;9.908;2023-02-28T02:34:35;0.40;;;0.40;;
20363;SDS011;10340;53.664;9.908;2023-02-28T02:37:15;0.40;;;0.40;;
20363;SDS011;10340;53.664;9.908;2023-02-28T02:39:54;0.47;;;0.47;;
20363;SDS011;10340;53.664;9.908;2023-02-28T02:42:27;0.40;;;0.40;;
20363;SDS011;10340;53.664;9.908;2023-02-28T02:44:58;0.43;;;0.43;;
20363;SDS011;10340;53.664;9.908;2023-02-28T02:47:30;0.40;;;0.40;;
20363;SDS011;10340;53.664;9.908;2023-02-28T02:50:01;0.47;;;0.47;;
20363;SDS011;10340;53.664;9.908;2023-02-28T02:52:32;0.40;;;0.40;;
20363;SDS011;10340;53.664;9.908;2023-02-28T02:55:05;0.40;;;0.40;;
20363;SDS011;10340;53.664;9.908;2023-02-28T02:57:36;0.50;;;0.50;;
20363;SDS011;10340;53.664;9.908;2023-02-28T03:00:08;0.50;;;0.50;;
20363;SDS011;10340;53.664;9.908;2023-02-28T03:02:38;0.50;;;0.50;;
20363;SDS011;10340;53.664;9.908;2023-02-28T03:05:08;0.40;;;0.40;;
20363;SDS011;10340;53.664;9.908;2023-02-28T03:07:42;0.47;;;0.47;;
20363;SDS011;10340;53.664;9.908;2023-02-28T03:13:17;0.40;;;0.40;;
20363;SDS011;10340;53.664;9.908;2023-02-28T03:16:02;0.47;;;0.47;;
20363;SDS011;10340;53.664;9.908;2023-02-28T03:18:54;0.43;;;0.43;;
20363;SDS011;10340;53.664;9.908;2023-02-28T03:21:32;0.47;;;0.47;;
20363;SDS011;10340;53.664;9.908;2023-02-28T03:24:04;0.40;;;0.40;;
20363;SDS011;10340;53.664;9.908;2023-02-28T03:26:36;0.47;;;0.47;;
20363;SDS011;10340;53.664;9.908;2023-02-28T03:29:09;0.40;;;0.40;;
20363;SDS011;10340;53.664;9.908;2023-02-28T03:31:43;0.40;;;0.40;;
20363;SDS011;10340;53.664;9.908;2023-02-28T03:34:16;0.50;;;0.50;;
20363;SDS011;10340;53.664;9.908;2023-02-28T03:36:50;0.30;;;0.30;;
20363;SDS011;10340;53.664;9.908;2023-02-28T03:39:20;0.30;;;0.30;;
20363;SDS011;10340;53.664;9.908;2023-02-28T03:41:51;0.40;;;0.40;;
20363;SDS011;10340;53.664;9.908;2023-02-28T03:44:32;0.50;;;0.50;;
20363;SDS011;10340;53.664;9.908;2023-02-28T03:47:06;0.43;;;0.43;;
20363;SDS011;10340;53.664;9.908;2023-02-28T03:49:38;0.40;;;0.40;;
20363;SDS011;10340;53.664;9.908;2023-02-28T03:52:14;0.40;;;0.40;;
20363;SDS011;10340;53.664;9.908;2023-02-28T03:54:43;0.50;;;0.50;;
20363;SDS011;10340;53.664;9.908;2023-02-28T03:57:15;0.40;;;0.40;;
20363;SDS011;10340;53.664;9.908;2023-02-28T03:59:49;0.50;;;0.50;;
20363;SDS011;10340;53.664;9.908;2023-02-28T04:02:20;0.40;;;0.40;;
20363;SDS011;10340;53.664;9.908;2023-02-28T04:04:47;0.40;;;0.40;;
20363;SDS011;10340;53.664;9.908;2023-02-28T04:07:16;0.50;;;0.50;;
20363;SDS011;10340;53.664;9.908;2023-02-28T04:09:43;0.30;;;0.30;;
20363;SDS011;10340;53.664;9.908;2023-02-28T04:12:10;0.50;;;0.50;;
20363;SDS011;10340;53.664;9.908;2023-02-28T04:14:37;0.50;;;0.50;;
20363;SDS011;10340;53.664;9.908;2023-02-28T04:17:04;0.50;;;0.50;;
20363;SDS011;10340;53.664;9.908;2023-02-28T04:19:32;0.43;;;0.43;;
20363;SDS011;10340;53.664;9.908;2023-02-28T04:21:59;0.50;;;0.50;;
20363;SDS011;10340;53.664;9.908;2023-02-28T04:24:28;0.43;;;0.43;;
20363;SDS011;10340;53.664;9.908;2023-02-28T04:26:56;0.50;;;0.50;;
20363;SDS011;10340;53.664;9.908;2023-02-28T04:29:24;0.60;;;0.60;;
20363;SDS011;10340;53.664;9.908;2023-02-28T04:31:53;0.40;;;0.40;;
20363;SDS011;10340;53.664;9.908;2023-02-28T04:34:23;0.50;;;0.50;;
20363;SDS011;10340;53.664;9.908;2023-02-28T04:36:50;0.50;;;0.50;;
20363;SDS011;10340;53.664;9.908;2023-02-28T04:39:19;0.50;;;0.50;;
20363;SDS011;10340;53.664;9.908;2023-02-28T04:41:48;0.57;;;0.57;;
20363;SDS011;10340;53.664;9.908;2023-02-28T04:44:15;0.50;;;0.50;;
20363;SDS011;10340;53.664;9.908;2023-02-28T04:46:43;0.67;;;0.67;;
20363;SDS011;10340;53.664;9.908;2023-02-28T04:49:10;0.47;;;0.47;;
20363;SDS011;10340;53.664;9.908;2023-02-28T04:51:39;0.50;;;0.50;;
20363;SDS011;10340;53.664;9.908;2023-02-28T04:54:06;0.50;;;0.50;;
20363;SDS011;10340;53.664;9.908;2023-02-28T04:56:34;0.50;;;0.50;;
20363;SDS011;10340;53.664;9.908;2023-02-28T04:59:02;0.57;;;0.57;;
20363;SDS011;10340;53.664;9.908;2023-02-28T05:01:30;0.50;;;0.50;;
20363;SDS011;10340;53.664;9.908;2023-02-28T05:03:59;0.57;;;0.57;;
20363;SDS011;10340;53.664;9.908;2023-02-28T05:06:28;0.60;;;0.60;;
20363;SDS011;10340;53.664;9.908;2023-02-28T05:08:56;0.57;;;0.57;;
20363;SDS011;10340;53.664;9.908;2023-02-28T05:11:24;0.63;;;0.63;;
20363;SDS011;10340;53.664;9.908;2023-02-28T05:13:54;0.50;;;0.50;;
20363;SDS011;10340;53.664;9.908;2023-02-28T05:16:22;0.57;;;0.57;;
20363;SDS011;10340;53.664;9.908;2023-02-28T05:18:49;0.50;;;0.50;;
20363;SDS011;10340;53.664;9.908;2023-02-28T05:21:28;0.50;;;0.50;;
20363;SDS011;10340;53.664;9.908;2023-02-28T05:23:57;0.60;;;0.60;;
20363;SDS011;10340;53.664;9.908;2023-02-28T05:26:25;0.50;;;0.50;;
20363;SDS011;10340;53.664;9.908;2023-02-28T05:28:53;0.53;;;0.53;;
20363;SDS011;10340;53.664;9.908;2023-02-28T05:31:20;0.60;;;0.60;;
20363;SDS011;10340;53.664;9.908;2023-02-28T05:33:48;0.60;;;0.60;;
20363;SDS011;10340;53.664;9.908;2023-02-28T05:36:16;0.60;;;0.60;;
20363;SDS011;10340;53.664;9.908;2023-02-28T05:38:45;0.70;;;0.70;;
20363;SDS011;10340;53.664;9.908;2023-02-28T05:41:13;0.50;;;0.50;;
20363;SDS011;10340;53.664;9.908;2023-02-28T05:43:41;0.57;;;0.57;;
20363;SDS011;10340;53.664;9.908;2023-02-28T05:46:08;0.60;;;0.60;;
20363;SDS011;10340;53.664;9.908;2023-02-28T05:48:37;0.50;;;0.50;;
20363;SDS011;10340;53.664;9.908;2023-02-28T05:51:06;0.50;;;0.50;;
20363;SDS011;10340;53.664;9.908;2023-02-28T05:53:34;0.70;;;0.70;;
20363;SDS011;10340;53.664;9.908;2023-02-28T05:56:01;0.70;;;0.70;;
20363;SDS011;10340;53.664;9.908;2023-02-28T05:58:29;0.60;;;0.60;;
20363;SDS011;10340;53.664;9.908;2023-02-28T06:00:57;0.50;;;0.50;;
20363;SDS011;10340;53.664;9.908;2023-02-28T06:03:24;0.50;;;0.50;;
20363;SDS011;10340;53.664;9.908;2023-02-28T06:05:51;0.50;;;0.50;;
20363;SDS011;10340;53.664;9.908;2023-02-28T06:08:20;0.70;;;0.70;;
20363;SDS011;10340;53.664;9.908;2023-02-28T06:10:47;0.60;;;0.60;;
20363;SDS011;10340;53.664;9.908;2023-02-28T06:13:14;0.60;;;0.60;;
20363;SDS011;10340;53.664;9.908;2023-02-28T06:15:41;0.63;;;0.63;;
20363;SDS011;10340;53.664;9.908;2023-02-28T06:18:08;0.60;;;0.60;;
20363;SDS011;10340;53.664;9.908;2023-02-28T06:20:35;0.43;;;0.43;;
20363;SDS011;10340;53.664;9.908;2023-02-28T06:23:02;0.60;;;0.60;;
20363;SDS011;10340;53.664;9.908;2023-02-28T06:25:31;0.50;;;0.50;;
20363;SDS011;10340;53.664;9.908;2023-02-28T06:27:58;0.60;;;0.60;;
20363;SDS011;10340;53.664;9.908;2023-02-28T06:30:25;0.50;;;0.50;;
20363;SDS011;10340;53.664;9.908;2023-02-28T06:32:56;0.53;;;0.53;;
20363;SDS011;10340;53.664;9.908;2023-02-28T06:35:23;0.50;;;0.50;;
20363;SDS011;10340;53.664;9.908;2023-02-28T06:37:50;0.60;;;0.60;;
20363;SDS011;10340;53.664;9.908;2023-02-28T06:40:17;0.50;;;0.50;;
20363;SDS011;10340;53.664;9.908;2023-02-28T06:42:45;0.60;;;0.60;;
20363;SDS011;10340;53.664;9.908;2023-02-28T06:45:13;0.60;;;0.60;;
20363;SDS011;10340;53.664;9.908;2023-02-28T06:47:40;0.80;;;0.80;;
20363;SDS011;10340;53.664;9.908;2023-02-28T06:50:09;0.63;;;0.63;;
20363;SDS011;10340;53.664;9.908;2023-02-28T06:52:37;0.60;;;0.60;;
20363;SDS011;10340;53.664;9.908;2023-02-28T06:55:05;0.60;;;0.60;;
20363;SDS011;10340;53.664;9.908;2023-02-28T06:57:34;0.60;;;0.60;;
20363;SDS011;10340;53.664;9.908;2023-02-28T07:02:35;0.60;;;0.60;;
20363;SDS011;10340;53.664;9.908;2023-02-28T07:05:03;0.60;;;0.60;;
20363;SDS011;10340;53.664;9.908;2023-02-28T07:07:31;0.50;;;0.50;;
20363;SDS011;10340;53.664;9.908;2023-02-28T07:10:01;0.80;;;0.80;;
20363;SDS011;10340;53.664;9.908;2023-02-28T07:12:28;0.60;;;0.60;;
20363;SDS011;10340;53.664;9.908;2023-02-28T07:14:55;0.57;;;0.57;;
20363;SDS011;10340;53.664;9.908;2023-02-28T07:17:23;0.70;;;0.70;;
20363;SDS011;10340;53.664;9.908;2023-02-28T07:19:50;0.67;;;0.67;;
20363;SDS011;10340;53.664;9.908;2023-02-28T07:22:17;0.70;;;0.70;;
20363;SDS011;10340;53.664;9.908;2023-02-28T07:24:47;0.80;;;0.80;;
20363;SDS011;10340;53.664;9.908;2023-02-28T07:27:14;0.50;;;0.50;;
20363;SDS011;10340;53.664;9.908;2023-02-28T07:29:48;0.43;;;0.43;;
20363;SDS011;10340;53.664;9.908;2023-02-28T07:32:18;0.50;;;0.50;;
20363;SDS011;10340;53.664;9.908;2023-02-28T07:34:47;0.60;;;0.60;;
20363;SDS011;10340;53.664;9.908;2023-02-28T07:37:14;0.70;;;0.70;;
20363;SDS011;10340;53.664;9.908;2023-02-28T07:39:41;0.70;;;0.70;;
20363;SDS011;10340;53.664;9.908;2023-02-28T07:42:09;0.60;;;0.60;;
20363;SDS011;10340;53.664;9.908;2023-02-28T07:44:37;0.60;;;0.60;;
20363;SDS011;10340;53.664;9.908;2023-02-28T07:47:06;0.60;;;0.60;;
20363;SDS011;10340;53.664;9.908;2023-02-28T07:49:34;0.50;;;0.50;;
20363;SDS011;10340;53.664;9.908;2023-02-28T07:52:03;0.50;;;0.50;;
20363;SDS011;10340;53.664;9.908;2023-02-28T07:54:31;1.70;;;0.93;;
20363;SDS011;10340;53.664;9.908;2023-02-28T07:56:57;0.50;;;0.50;;
20363;SDS011;10340;53.664;9.908;2023-02-28T07:59:24;0.43;;;0.43;;
20363;SDS011;10340;53.664;9.908;2023-02-28T08:01:51;0.60;;;0.60;;
20363;SDS011;10340;53.664;9.908;2023-02-28T08:04:18;0.50;;;0.50;;
20363;SDS011;10340;53.664;9.908;2023-02-28T08:06:45;0.40;;;0.40;;
20363;SDS011;10340;53.664;9.908;2023-02-28T08:09:14;0.50;;;0.50;;
20363;SDS011;10340;53.664;9.908;2023-02-28T08:11:41;0.67;;;0.67;;
20363;SDS011;10340;53.664;9.908;2023-02-28T08:14:08;0.40;;;0.40;;
20363;SDS011;10340;53.664;9.908;2023-02-28T08:16:35;0.60;;;0.60;;
20363;SDS011;10340;53.664;9.908;2023-02-28T08:19:02;0.60;;;0.60;;
20363;SDS011;10340;53.664;9.908;2023-02-28T08:21:29;0.40;;;0.40;;
20363;SDS011;10340;53.664;9.908;2023-02-28T08:23:56;0.50;;;0.50;;
20363;SDS011;10340;53.664;9.908;2023-02-28T08:26:24;0.50;;;0.50;;
20363;SDS011;10340;53.664;9.908;2023-02-28T08:28:51;0.43;;;0.43;;
20363;SDS011;10340;53.664;9.908;2023-02-28T08:31:18;0.50;;;0.50;;
20363;SDS011;10340;53.664;9.908;2023-02-28T08:33:46;0.30;;;0.30;;
20363;SDS011;10340;53.664;9.908;2023-02-28T08:36:16;0.40;;;0.40;;
20363;SDS011;10340;53.664;9.908;2023-02-28T08:38:43;0.50;;;0.50;;
20363;SDS011;10340;53.664;9.908;2023-02-28T08:41:11;0.50;;;0.50;;
20363;SDS011;10340;53.664;9.908;2023-02-28T08:43:40;0.50;;;0.50;;
20363;SDS011;10340;53.664;9.908;2023-02-28T08:46:08;0.40;;;0.40;;
20363;SDS011;10340;53.664;9.908;2023-02-28T08:48:38;0.40;;;0.40;;
20363;SDS011;10340;53.664;9.908;2023-02-28T08:51:06;0.40;;;0.40;;
20363;SDS011;10340;53.664;9.908;2023-02-28T08:53:35;0.30;;;0.30;;
20363;SDS011;10340;53.664;9.908;2023-02-28T08:56:03;0.30;;;0.30;;
20363;SDS011;10340;53.664;9.908;2023-02-28T08:58:31;0.30;;;0.30;;
20363;SDS011;10340;53.664;9.908;2023-02-28T09:01:06;0.40;;;0.40;;
20363;SDS011;10340;53.664;9.908;2023-02-28T09:03:35;0.40;;;0.40;;
20363;SDS011;10340;53.664;9.908;2023-02-28T09:06:02;0.30;;;0.30;;
20363;SDS011;10340;53.664;9.908;2023-02-28T09:08:30;0.30;;;0.30;;
20363;SDS011;10340;53.664;9.908;2023-02-28T09:10:57;0.40;;;0.40;;
20363;SDS011;10340;53.664;9.908;2023-02-28T09:13:24;0.40;;;0.40;;
20363;SDS011;10340;53.664;9.908;2023-02-28T09:15:52;0.40;;;0.40;;
20363;SDS011;10340;53.664;9.908;2023-02-28T09:18:21;0.40;;;0.40;;
20363;SDS011;10340;53.664;9.908;2023-02-28T09:20:48;0.40;;;0.40;;
20363;SDS011;10340;53.664;9.908;2023-02-28T09:23:15;0.40;;;0.40;;
20363;SDS011;10340;53.664;9.908;2023-02-28T09:25:46;0.37;;;0.37;;
20363;SDS011;10340;53.664;9.908;2023-02-28T09:28:14;0.40;;;0.40;;
20363;SDS011;10340;53.664;9.908;2023-02-28T09:30:42;0.40;;;0.40;;
20363;SDS011;10340;53.664;9.908;2023-02-28T09:33:11;0.30;;;0.30;;
20363;SDS011;10340;53.664;9.908;2023-02-28T09:35:40;0.37;;;0.37;;
20363;SDS011;10340;53.664;9.908;2023-02-28T09:38:08;0.30;;;0.30;;
20363;SDS011;10340;53.664;9.908;2023-02-28T09:40:36;0.40;;;0.40;;
20363;SDS011;10340;53.664;9.908;2023-02-28T09:43:06;0.30;;;0.30;;
20363;SDS011;10340;53.664;9.908;2023-02-28T09:45:39;0.30;;;0.30;;
20363;SDS011;10340;53.664;9.908;2023-02-28T09:48:10;0.38;;;0.38;;
20363;SDS011;10340;53.664;9.908;2023-02-28T09:50:43;0.40;;;0.40;;
20363;SDS011;10340;53.664;9.908;2023-02-28T09:53:15;0.30;;;0.30;;
20363;SDS011;10340;53.664;9.908;2023-02-28T09:55:48;0.37;;;0.37;;
20363;SDS011;10340;53.664;9.908;2023-02-28T09:58:20;0.30;;;0.30;;
20363;SDS011;10340;53.664;9.908;2023-02-28T10:00:56;0.40;;;0.40;;
20363;SDS011;10340;53.664;9.908;2023-02-28T10:03:30;0.33;;;0.33;;
20363;SDS011;10340;53.664;9.908;2023-02-28T10:06:06;0.30;;;0.30;;
20363;SDS011;10340;53.664;9.908;2023-02-28T10:08:39;0.30;;;0.30;;
20363;SDS011;10340;53.664;9.908;2023-02-28T10:11:11;0.30;;;0.30;;
20363;SDS011;10340;53.664;9.908;2023-02-28T10:13:45;0.30;;;0.30;;
20363;SDS011;10340;53.664;9.908;2023-02-28T10:16:20;0.30;;;0.30;;
20363;SDS011;10340;53.664;9.908;2023-02-28T10:18:54;0.40;;;0.40;;
20363;SDS011;10340;53.664;9.908;2023-02-28T10:21:28;0.40;;;0.40;;
20363;SDS011;10340;53.664;9.908;2023-02-28T10:24:01;0.40;;;0.40;;
20363;SDS011;10340;53.664;9.908;2023-02-28T10:26:31;0.40;;;0.40;;
20363;SDS011;10340;53.664;9.908;2023-02-28T10:28:59;0.38;;;0.38;;
20363;SDS011;10340;53.664;9.908;2023-02-28T10:31:27;0.30;;;0.30;;
20363;SDS011;10340;53.664;9.908;2023-02-28T10:33:55;0.30;;;0.30;;
20363;SDS011;10340;53.664;9.908;2023-02-28T10:36:22;0.30;;;0.30;;
20363;SDS011;10340;53.664;9.908;2023-02-28T10:38:51;0.30;;;0.30;;
20363;SDS011;10340;53.664;9.908;2023-02-28T10:41:26;0.30;;;0.30;;
20363;SDS011;10340;53.664;9.908;2023-02-28T10:44:11;0.20;;;0.20;;
20363;SDS011;10340;53.664;9.908;2023-02-28T10:46:40;0.40;;;0.40;;
20363;SDS011;10340;53.664;9.908;2023-02-28T10:49:12;0.43;;;0.43;;
20363;SDS011;10340;53.664;9.908;2023-02-28T10:51:43;0.30;;;0.30;;
20363;SDS011;10340;53.664;9.908;2023-02-28T10:54:28;0.30;;;0.30;;
20363;SDS011;10340;53.664;9.908;2023-02-28T10:57:08;0.30;;;0.30;;
20363;SDS011;10340;53.664;9.908;2023-02-28T10:59:42;0.30;;;0.30;;
20363;SDS011;10340;53.664;9.908;2023-02-28T11:02:29;0.30;;;0.30;;
20363;SDS011;10340;53.664;9.908;2023-02-28T11:04:58;0.32;;;0.32;;
20363;SDS011;10340;53.664;9.908;2023-02-28T11:07:26;0.30;;;0.30;;
20363;SDS011;10340;53.664;9.908;2023-02-28T11:09:55;0.27;;;0.27;;
20363;SDS011;10340;53.664;9.908;2023-02-28T11:12:25;0.30;;;0.30;;
20363;SDS011;10340;53.664;9.908;2023-02-28T11:14:56;0.32;;;0.32;;
20363;SDS011;10340;53.664;9.908;2023-02-28T11:17:25;0.30;;;0.30;;
20363;SDS011;10340;53.664;9.908;2023-02-28T11:19:55;0.30;;;0.30;;
20363;SDS011;10340;53.664;9.908;2023-02-28T11:22:24;0.30;;;0.30;;
20363;SDS011;10340;53.664;9.908;2023-02-28T11:24:57;0.30;;;0.30;;
20363;SDS011;10340;53.664;9.908;2023-02-28T11:27:46;0.38;;;0.38;;
20363;SDS011;10340;53.664;9.908;2023-02-28T11:33:22;0.20;;;0.20;;
20363;SDS011;10340;53.664;9.908;2023-02-28T11:35:53;0.30;;;0.30;;
20363;SDS011;10340;53.664;9.908;2023-02-28T11:38:25;0.32;;;0.32;;
20363;SDS011;10340;53.664;9.908;2023-02-28T11:40:59;0.30;;;0.30;;
20363;SDS011;10340;53.664;9.908;2023-02-28T11:43:38;0.30;;;0.30;;
20363;SDS011;10340;53.664;9.908;2023-02-28T11:46:20;0.28;;;0.28;;
20363;SDS011;10340;53.664;9.908;2023-02-28T11:48:56;0.30;;;0.30;;
20363;SDS011;10340;53.664;9.908;2023-02-28T11:51:30;0.30;;;0.30;;
20363;SDS011;10340;53.664;9.908;2023-02-28T11:54:11;0.30;;;0.30;;
20363;SDS011;10340;53.664;9.908;2023-02-28T11:56:53;0.40;;;0.40;;
20363;SDS011;10340;53.664;9.908;2023-02-28T11:59:31;0.40;;;0.40;;
20363;SDS011;10340;53.664;9.908;2023-02-28T12:02:10;0.25;;;0.25;;
20363;SDS011;10340;53.664;9.908;2023-02-28T12:04:57;0.38;;;0.38;;
20363;SDS011;10340;53.664;9.908;2023-02-28T12:07:41;0.40;;;0.40;;
20363;SDS011;10340;53.664;9.908;2023-02-28T12:10:23;0.30;;;0.30;;
20363;SDS011;10340;53.664;9.908;2023-02-28T12:12:58;0.38;;;0.38;;
20363;SDS011;10340;53.664;9.908;2023-02-28T12:21:59;0.30;;;0.30;;
20363;SDS011;10340;53.664;9.908;2023-02-28T12:24:39;0.25;;;0.25;;
20363;SDS011;10340;53.664;9.908;2023-02-28T12:27:22;0.28;;;0.28;;
20363;SDS011;10340;53.664;9.908;2023-02-28T12:29:55;0.30;;;0.30;;
20363;SDS011;10340;53.664;9.908;2023-02-28T12:32:26;0.30;;;0.30;;
20363;SDS011;10340;53.664;9.908;2023-02-28T12:34:57;0.20;;;0.20;;
20363;SDS011;10340;53.664;9.908;2023-02-28T12:37:31;0.30;;;0.30;;
20363;SDS011;10340;53.664;9.908;2023-02-28T12:40:04;0.30;;;0.30;;
20363;SDS011;10340;53.664;9.908;2023-02-28T12:42:38;0.22;;;0.22;;
20363;SDS011;10340;53.664;9.908;2023-02-28T12:45:10;0.30;;;0.30;;
20363;SDS011;10340;53.664;9.908;2023-02-28T12:47:40;0.30;;;0.30;;
20363;SDS011;10340;53.664;9.908;2023-02-28T12:50:11;0.30;;;0.30;;
20363;SDS011;10340;53.664;9.908;2023-02-28T12:52:44;0.30;;;0.30;;
20363;SDS011;10340;53.664;9.908;2023-02-28T12:55:21;0.25;;;0.25;;
20363;SDS011;10340;53.664;9.908;2023-02-28T12:57:57;0.30;;;0.30;;
20363;SDS011;10340;53.664;9.908;2023-02-28T13:00:33;0.40;;;0.40;;
20363;SDS011;10340;53.664;9.908;2023-02-28T13:06:10;0.30;;;0.30;;
20363;SDS011;10340;53.664;9.908;2023-02-28T13:09:04;0.40;;;0.40;;
20363;SDS011;10340;53.664;9.908;2023-02-28T13:11:38;0.40;;;0.40;;
20363;SDS011;10340;53.664;9.908;2023-02-28T13:14:16;0.30;;;0.30;;
20363;SDS011;10340;53.664;9.908;2023-02-28T13:16:50;0.40;;;0.40;;
20363;SDS011;10340;53.664;9.908;2023-02-28T13:19:23;0.38;;;0.38;;
20363;SDS011;10340;53.664;9.908;2023-02-28T13:21:52;0.30;;;0.30;;
20363;SDS011;10340;53.664;9.908;2023-02-28T13:27:21;0.30;;;0.30;;
20363;SDS011;10340;53.664;9.908;2023-02-28T13:29:51;0.30;;;0.30;;
20363;SDS011;10340;53.664;9.908;2023-02-28T13:32:26;0.30;;;0.30;;
20363;SDS011;10340;53.664;9.908;2023-02-28T13:38:17;0.30;;;0.30;;
20363;SDS011;10340;53.664;9.908;2023-02-28T13:40:50;0.30;;;0.30;;
20363;SDS011;10340;53.664;9.908;2023-02-28T13:43:17;0.20;;;0.20;;
20363;SDS011;10340;53.664;9.908;2023-02-28T13:48:35;0.40;;;0.40;;
20363;SDS011;10340;53.664;9.908;2023-02-28T13:54:00;0.30;;;0.30;;
20363;SDS011;10340;53.664;9.908;2023-02-28T13:56:35;0.30;;;0.30;;
20363;SDS011;10340;53.664;9.908;2023-02-28T13:59:16;0.30;;;0.30;;
20363;SDS011;10340;53.664;9.908;2023-02-28T14:01:53;0.30;;;0.30;;
20363;SDS011;10340;53.664;9.908;2023-02-28T14:04:43;0.30;;;0.30;;
20363;SDS011;10340;53.664;9.908;2023-02-28T14:07:20;0.30;;;0.30;;
20363;SDS011;10340;53.664;9.908;2023-02-28T14:09:55;0.30;;;0.30;;
20363;SDS011;10340;53.664;9.908;2023-02-28T14:18:23;0.30;;;0.30;;
20363;SDS011;10340;53.664;9.908;2023-02-28T14:21:11;0.22;;;0.22;;
20363;SDS011;10340;53.664;9.908;2023-02-28T14:26:52;0.20;;;0.20;;
20363;SDS011;10340;53.664;9.908;2023-02-28T14:29:51;0.25;;;0.25;;
20363;SDS011;10340;53.664;9.908;2023-02-28T14:32:47;0.40;;;0.40;;
20363;SDS011;10340;53.664;9.908;2023-02-28T14:35:35;0.30;;;0.30;;
20363;SDS011;10340;53.664;9.908;2023-02-28T14:38:22;0.30;;;0.30;;
20363;SDS011;10340;53.664;9.908;2023-02-28T14:40:53;0.40;;;0.40;;
20363;SDS011;10340;53.664;9.908;2023-02-28T14:43:23;0.40;;;0.40;;
20363;SDS011;10340;53.664;9.908;2023-02-28T14:45:54;0.40;;;0.40;;
20363;SDS011;10340;53.664;9.908;2023-02-28T14:48:23;0.20;;;0.20;;
20363;SDS011;10340;53.664;9.908;2023-02-28T14:50:52;0.30;;;0.30;;
20363;SDS011;10340;53.664;9.908;2023-02-28T14:53:23;0.30;;;0.30;;
20363;SDS011;10340;53.664;9.908;2023-02-28T14:55:53;0.30;;;0.30;;
20363;SDS011;10340;53.664;9.908;2023-02-28T14:58:22;0.30;;;0.30;;
20363;SDS011;10340;53.664;9.908;2023-02-28T15:00:51;0.30;;;0.30;;
20363;SDS011;10340;53.664;9.908;2023-02-28T15:03:20;0.30;;;0.30;;
20363;SDS011;10340;53.664;9.908;2023-02-28T15:05:53;0.30;;;0.30;;
20363;SDS011;10340;53.664;9.908;2023-02-28T15:08:23;0.20;;;0.20;;
20363;SDS011;10340;53.664;9.908;2023-02-28T15:10:52;0.30;;;0.30;;
20363;SDS011;10340;53.664;9.908;2023-02-28T15:13:20;0.30;;;0.30;;
20363;SDS011;10340;53.664;9.908;2023-02-28T15:15:49;0.30;;;0.30;;
20363;SDS011;10340;53.664;9.908;2023-02-28T15:18:23;0.30;;;0.30;;
20363;SDS011;10340;53.664;9.908;2023-02-28T15:20:55;0.32;;;0.32;;
20363;SDS011;10340;53.664;9.908;2023-02-28T15:23:25;0.32;;;0.32;;
20363;SDS011;10340;53.664;9.908;2023-02-28T15:25:52;0.20;;;0.20;;
20363;SDS011;10340;53.664;9.908;2023-02-28T15:28:20;0.30;;;0.30;;
20363;SDS011;10340;53.664;9.908;2023-02-28T15:30:53;0.30;;;0.30;;
20363;SDS011;10340;53.664;9.908;2023-02-28T15:33:23;0.30;;;0.30;;
20363;SDS011;10340;53.664;9.908;2023-02-28T15:35:51;0.30;;;0.30;;
20363;SDS011;10340;53.664;9.908;2023-02-28T15:38:33;0.30;;;0.30;;
20363;SDS011;10340;53.664;9.908;2023-02-28T15:41:01;0.30;;;0.30;;
20363;SDS011;10340;53.664;9.908;2023-02-28T15:43:36;0.30;;;0.30;;
20363;SDS011;10340;53.664;9.908;2023-02-28T15:46:05;0.30;;;0.30;;
20363;SDS011;10340;53.664;9.908;2023-02-28T15:48:35;0.20;;;0.20;;
20363;SDS011;10340;53.664;9.908;2023-02-28T15:51:06;0.30;;;0.30;;
20363;SDS011;10340;53.664;9.908;2023-02-28T15:53:37;0.30;;;0.30;;
20363;SDS011;10340;53.664;9.908;2023-02-28T15:56:19;0.30;;;0.30;;